You are listening to:
YSSY ATIS - Sydney, New South Wales, Australia

YSSY 240230Z 17008KT 9999 FEW028 BKN300 18/13 Q1026 RF00.0/000.0

If stream doesn't start automatically press the play button
If stream stops then reload player then press play